Time;durP1;ratioP1;P1;durP2;ratioP2;P2;SDS_P1;SDS_P2;PMS_P1;PMS_P2;Temp;Humidity;BMP_temperature;BMP_pressure;BME280_temperature;BME280_humidity;BME280_pressure;Samples;Min_cycle;Max_cycle;Signal;HPM_P1;HPM_P2
2022/01/07 00:00:16;;;;;;;18.52;6.15;;;2.80;99.90;;;;;;5095093;28;20024;-51
2022/01/07 00:02:43;;;;;;;21.15;5.45;;;2.70;99.90;;;;;;5094804;28;20035;-52
2022/01/07 00:05:09;;;;;;;20.80;6.88;;;2.60;99.90;;;;;;5077499;28;20107;-52
2022/01/07 00:07:35;;;;;;;22.77;6.43;;;2.50;99.90;;;;;;5094795;28;20084;-48
2022/01/07 00:10:01;;;;;;;17.67;5.90;;;2.60;99.90;;;;;;5094717;28;20056;-49
2022/01/07 00:12:26;;;;;;;21.65;5.70;;;2.50;99.90;;;;;;5076856;28;20063;-49
2022/01/07 00:14:52;;;;;;;17.63;6.20;;;2.60;99.90;;;;;;5076498;28;20118;-51
2022/01/07 00:17:17;;;;;;;18.55;5.13;;;2.70;99.90;;;;;;5076371;28;20032;-48
2022/01/07 00:19:43;;;;;;;17.73;5.25;;;2.60;99.90;;;;;;5094350;28;20028;-52
2022/01/07 00:22:09;;;;;;;13.90;4.43;;;2.50;99.90;;;;;;5076693;28;20119;-48
2022/01/07 00:25:26;;;;;;;20.55;5.35;;;2.50;99.90;;;;;;5076299;28;20020;-48
2022/01/07 00:27:52;;;;;;;21.15;5.70;;;2.40;99.90;;;;;;5094679;28;20069;-49
2022/01/07 00:30:19;;;;;;;21.13;6.03;;;2.90;99.90;;;;;;5076245;28;20028;-49
2022/01/07 00:32:45;;;;;;;18.20;6.68;;;2.90;99.90;;;;;;5094355;28;20024;-48
2022/01/07 00:35:14;;;;;;;13.05;5.32;;;2.80;99.90;;;;;;5076270;28;20046;-47
2022/01/07 00:37:39;;;;;;;18.65;5.50;;;2.70;99.90;;;;;;5094269;28;20020;-52
2022/01/07 00:40:07;;;;;;;11.77;5.38;;;2.80;99.90;;;;;;5094077;28;20020;-48
2022/01/07 00:42:33;;;;;;;15.45;5.25;;;2.80;99.90;;;;;;5075968;28;20054;-48
2022/01/07 00:44:59;;;;;;;17.85;5.90;;;2.90;99.90;;;;;;5075862;28;20024;-51
2022/01/07 00:47:24;;;;;;;21.05;5.88;;;2.80;99.90;;;;;;5093898;28;20024;-50
2022/01/07 00:49:50;;;;;;;20.60;6.15;;;2.70;99.90;;;;;;5075772;28;20024;-47
2022/01/07 00:52:28;;;;;;;19.30;5.65;;;2.70;99.90;;;;;;5075747;28;20031;-51
2022/01/07 00:54:53;;;;;;;17.55;6.13;;;2.70;99.90;;;;;;5075774;28;20119;-47
2022/01/07 00:57:19;;;;;;;19.45;6.32;;;2.90;99.90;;;;;;5094108;28;20056;-53
2022/01/07 00:59:46;;;;;;;11.25;5.20;;;2.70;99.90;;;;;;5075986;28;20024;-52
2022/01/07 01:02:12;;;;;;;13.85;6.20;;;2.80;99.90;;;;;;5075553;28;20086;-52
2022/01/07 01:04:38;;;;;;;17.65;5.55;;;3.00;99.90;;;;;;5093684;28;20071;-48
2022/01/07 01:07:04;;;;;;;18.90;5.40;;;3.00;99.90;;;;;;5093591;28;20020;-51
2022/01/07 01:09:30;;;;;;;17.20;4.85;;;2.80;99.90;;;;;;5075706;28;20119;-53
2022/01/07 01:11:57;;;;;;;17.67;4.85;;;2.70;99.90;;;;;;5075948;28;20028;-50
2022/01/07 01:14:23;;;;;;;14.77;5.05;;;2.60;99.90;;;;;;5093654;28;20024;-50
2022/01/07 01:16:51;;;;;;;10.27;4.32;;;2.60;99.90;;;;;;5075142;28;20020;-51
2022/01/07 01:19:17;;;;;;;14.75;5.05;;;2.50;99.90;;;;;;5075300;28;20020;-53
2022/01/07 01:21:43;;;;;;;14.73;5.25;;;2.40;99.90;;;;;;5075431;28;20024;-50
2022/01/07 01:24:08;;;;;;;14.60;5.25;;;2.40;99.90;;;;;;5075858;28;20024;-51
2022/01/07 01:26:34;;;;;;;14.10;5.40;;;2.50;99.90;;;;;;5075317;28;20540;-49
2022/01/07 01:29:00;;;;;;;20.35;6.32;;;2.50;99.90;;;;;;5093464;28;20478;-53
2022/01/07 01:31:25;;;;;;;15.02;5.30;;;2.70;99.90;;;;;;5093478;28;20024;-48
2022/01/07 01:33:51;;;;;;;17.73;5.97;;;2.80;99.90;;;;;;5093706;28;20024;-51
2022/01/07 01:36:17;;;;;;;13.02;5.00;;;2.90;99.90;;;;;;5075313;28;20043;-48
2022/01/07 01:38:42;;;;;;;19.48;5.82;;;3.10;99.90;;;;;;5093257;28;20506;-50
2022/01/07 01:41:09;;;;;;;14.52;5.05;;;3.20;99.90;;;;;;5075388;28;20023;-47
2022/01/07 01:43:35;;;;;;;15.05;4.97;;;3.10;99.90;;;;;;5093371;28;20032;-49
2022/01/07 01:46:01;;;;;;;11.95;5.03;;;3.10;99.90;;;;;;5075179;28;20032;-47
2022/01/07 01:48:27;;;;;;;11.93;4.88;;;3.00;99.90;;;;;;5093683;28;20016;-49
2022/01/07 01:50:55;;;;;;;14.00;5.18;;;3.00;99.90;;;;;;5075291;28;20031;-47
2022/01/07 01:53:21;;;;;;;12.73;4.35;;;2.90;99.90;;;;;;5093222;28;20024;-48
2022/01/07 01:55:46;;;;;;;13.82;4.72;;;2.80;99.90;;;;;;5075167;28;20111;-48
2022/01/07 01:58:12;;;;;;;17.50;5.63;;;2.70;99.90;;;;;;5093375;28;20027;-49
2022/01/07 02:00:39;;;;;;;21.17;5.88;;;2.60;99.90;;;;;;5075423;28;20025;-48
2022/01/07 02:03:05;;;;;;;13.73;5.78;;;2.50;99.90;;;;;;5093451;28;20020;-48
2022/01/07 02:05:32;;;;;;;24.83;7.18;;;2.40;99.90;;;;;;5093192;28;20383;-48
2022/01/07 02:07:58;;;;;;;15.48;6.35;;;2.30;99.90;;;;;;5093003;28;20016;-50
2022/01/07 02:10:24;;;;;;;14.32;5.32;;;2.30;99.90;;;;;;5075075;28;20020;-51
2022/01/07 02:12:49;;;;;;;10.93;5.05;;;2.30;99.90;;;;;;5093038;28;20024;-51
2022/01/07 02:15:17;;;;;;;12.93;4.82;;;2.30;99.90;;;;;;5092995;28;20050;-49
2022/01/07 02:17:45;;;;;;;11.27;4.32;;;2.50;99.90;;;;;;5075328;28;20120;-49
2022/01/07 02:20:13;;;;;;;20.98;4.38;;;2.60;99.90;;;;;;5074974;28;20085;-48
2022/01/07 02:22:38;;;;;;;11.65;4.30;;;2.70;99.90;;;;;;5075225;28;20021;-49
2022/01/07 02:25:04;;;;;;;20.15;5.38;;;2.80;99.90;;;;;;5092910;28;20024;-50
2022/01/07 02:27:34;;;;;;;15.40;4.72;;;3.00;99.90;;;;;;5092996;28;20069;-48
2022/01/07 02:30:00;;;;;;;13.07;4.82;;;3.10;99.90;;;;;;5096384;28;20032;-48
2022/01/07 02:32:25;;;;;;;14.10;5.00;;;3.40;99.90;;;;;;5079102;28;20108;-50
2022/01/07 02:34:51;;;;;;;18.73;5.70;;;3.50;99.90;;;;;;5096773;28;20085;-48
2022/01/07 02:37:17;;;;;;;19.52;5.57;;;3.50;99.90;;;;;;5096637;28;20051;-51
2022/01/07 02:39:54;;;;;;;17.40;5.07;;;3.20;99.90;;;;;;5078660;28;20020;-48
2022/01/07 02:42:20;;;;;;;14.77;6.07;;;2.90;99.90;;;;;;5096723;28;20020;-48
2022/01/07 02:44:45;;;;;;;19.83;5.70;;;2.90;99.90;;;;;;5079063;28;20522;-48
2022/01/07 02:47:11;;;;;;;16.60;6.93;;;2.80;99.90;;;;;;5096245;28;20050;-48
2022/01/07 02:49:36;;;;;;;18.90;6.75;;;2.90;99.90;;;;;;5078524;28;20028;-50
2022/01/07 02:52:02;;;;;;;18.13;6.35;;;2.90;99.90;;;;;;5096280;28;20024;-54
2022/01/07 02:54:28;;;;;;;18.40;6.25;;;2.90;99.90;;;;;;5096276;28;20078;-49
2022/01/07 02:56:54;;;;;;;22.15;6.68;;;2.80;99.90;;;;;;5077914;28;20024;-49
2022/01/07 02:59:20;;;;;;;17.85;5.90;;;3.00;99.90;;;;;;5077972;28;20020;-48
2022/01/07 03:01:46;;;;;;;12.65;5.63;;;3.00;99.90;;;;;;5096224;28;20081;-50
2022/01/07 03:04:11;;;;;;;19.58;5.75;;;3.00;99.90;;;;;;5078027;28;20024;-51
2022/01/07 03:06:37;;;;;;;10.13;5.00;;;3.10;99.90;;;;;;5078388;28;20020;-49
2022/01/07 03:09:04;;;;;;;18.15;5.28;;;3.10;99.90;;;;;;5077812;28;20024;-48
2022/01/07 03:11:30;;;;;;;10.20;3.80;;;3.40;99.90;;;;;;5095832;28;20032;-48
2022/01/07 03:13:56;;;;;;;11.65;4.63;;;3.60;99.90;;;;;;5095868;28;20083;-48
2022/01/07 03:16:22;;;;;;;15.57;3.80;;;3.90;99.90;;;;;;5095772;28;20051;-50
2022/01/07 03:18:48;;;;;;;10.45;3.85;;;3.90;99.90;;;;;;5077963;28;20031;-52
2022/01/07 03:21:14;;;;;;;8.48;3.60;;;4.00;99.90;;;;;;5078384;28;20020;-50
2022/01/07 03:23:41;;;;;;;15.18;3.67;;;4.10;99.90;;;;;;5077627;28;20490;-48
2022/01/07 03:26:08;;;;;;;12.27;3.33;;;4.20;99.90;;;;;;5095683;28;20043;-48
2022/01/07 03:28:33;;;;;;;11.70;4.20;;;4.30;99.90;;;;;;5077401;28;20035;-50
2022/01/07 03:30:59;;;;;;;10.35;4.18;;;4.20;99.90;;;;;;5077400;28;20024;-48
2022/01/07 03:33:25;;;;;;;13.00;4.15;;;4.20;99.90;;;;;;5077766;28;20024;-52
2022/01/07 03:35:51;;;;;;;6.03;3.67;;;4.20;99.90;;;;;;5095394;28;20024;-50
2022/01/07 03:38:16;;;;;;;10.93;4.68;;;4.30;99.90;;;;;;5095238;28;20024;-51
2022/01/07 03:40:42;;;;;;;12.07;3.72;;;4.20;99.90;;;;;;5094726;28;20024;-49
2022/01/07 03:43:08;;;;;;;12.68;4.15;;;4.30;99.90;;;;;;5095325;28;20020;-49
2022/01/07 03:45:34;;;;;;;14.95;5.50;;;4.20;99.90;;;;;;5077641;28;20024;-49
2022/01/07 03:48:00;;;;;;;12.02;5.55;;;4.20;99.90;;;;;;5077435;28;20048;-51
2022/01/07 03:50:27;;;;;;;22.83;6.90;;;3.90;99.90;;;;;;5095641;28;20078;-49
2022/01/07 03:52:55;;;;;;;17.98;5.97;;;3.60;99.90;;;;;;5095043;28;20027;-50
2022/01/07 03:55:22;;;;;;;15.38;6.90;;;3.60;99.90;;;;;;5077026;28;20096;-52
2022/01/07 03:57:48;;;;;;;16.90;7.30;;;3.50;99.90;;;;;;5094973;28;20027;-49
2022/01/07 04:00:18;;;;;;;19.73;7.95;;;3.40;99.90;;;;;;5077551;28;20024;-49
2022/01/07 04:02:45;;;;;;;20.42;7.38;;;3.40;99.90;;;;;;5095664;28;20028;-50
2022/01/07 04:05:11;;;;;;;25.35;8.48;;;3.60;99.90;;;;;;5076705;28;20024;-53
2022/01/07 04:07:37;;;;;;;20.83;7.70;;;3.50;99.90;;;;;;5094723;28;20020;-48
2022/01/07 04:10:05;;;;;;;20.95;7.93;;;3.30;99.90;;;;;;5094724;28;20085;-48
2022/01/07 04:12:30;;;;;;;22.63;8.57;;;3.30;99.90;;;;;;5076553;28;20054;-48
2022/01/07 04:15:29;;;;;;;26.48;9.40;;;3.20;99.90;;;;;;5094625;28;20028;-52
2022/01/07 04:17:50;;;;;;;24.42;9.38;;;3.00;99.90;;;;;;5091863;28;20024;-52
2022/01/07 04:20:18;;;;;;;20.98;9.27;;;2.90;99.90;;;;;;5076563;28;20036;-52
2022/01/07 04:22:45;;;;;;;23.77;9.70;;;3.00;99.90;;;;;;5076226;28;20064;-52
2022/01/07 04:25:17;;;;;;;24.35;10.73;;;3.10;99.90;;;;;;5094324;28;20031;-51
2022/01/07 04:27:47;;;;;;;30.40;11.32;;;3.00;99.90;;;;;;5093131;28;20022;-49
2022/01/07 04:30:13;;;;;;;26.10;9.82;;;3.10;99.90;;;;;;5094322;28;20048;-50
2022/01/07 04:32:40;;;;;;;25.75;11.10;;;3.10;99.90;;;;;;5094329;28;20020;-49
2022/01/07 04:35:06;;;;;;;24.48;9.75;;;3.20;99.90;;;;;;5093796;28;20072;-50
2022/01/07 04:37:33;;;;;;;26.30;10.15;;;3.10;99.90;;;;;;5094119;28;20059;-52
2022/01/07 04:39:58;;;;;;;27.17;9.60;;;3.00;99.90;;;;;;5093702;28;20020;-48
2022/01/07 04:42:24;;;;;;;29.13;10.80;;;2.80;99.90;;;;;;5094156;28;20031;-50
2022/01/07 04:44:49;;;;;;;27.23;11.20;;;2.60;99.90;;;;;;5092926;28;20141;-53
2022/01/07 04:47:15;;;;;;;31.98;11.25;;;2.50;99.90;;;;;;5092723;28;20137;-52
2022/01/07 04:49:41;;;;;;;30.60;11.38;;;2.60;99.90;;;;;;5092813;28;20478;-51
2022/01/07 04:52:07;;;;;;;25.65;10.98;;;2.50;99.90;;;;;;5092949;28;20028;-50
2022/01/07 04:54:33;;;;;;;31.45;10.75;;;2.50;99.90;;;;;;5092647;28;20024;-50
2022/01/07 04:56:59;;;;;;;24.13;10.82;;;2.40;99.90;;;;;;5093763;28;20445;-50
2022/01/07 04:59:25;;;;;;;26.45;10.43;;;2.50;99.90;;;;;;5092617;28;20055;-54
2022/01/07 05:01:51;;;;;;;24.42;10.75;;;2.70;99.90;;;;;;5092751;28;20036;-55
2022/01/07 05:04:16;;;;;;;22.23;11.15;;;2.60;99.90;;;;;;5093814;28;20070;-50
2022/01/07 05:06:45;;;;;;;26.70;9.82;;;2.70;99.90;;;;;;5092491;28;20058;-50
2022/01/07 05:09:18;;;;;;;31.17;10.63;;;2.80;99.90;;;;;;5093617;28;20028;-50
2022/01/07 05:11:45;;;;;;;27.15;9.05;;;2.90;99.90;;;;;;5092334;28;20063;-50
2022/01/07 05:14:11;;;;;;;29.42;10.63;;;2.80;99.90;;;;;;5093646;28;20032;-51
2022/01/07 05:16:36;;;;;;;24.30;8.88;;;2.80;99.90;;;;;;5093591;28;20024;-52
2022/01/07 05:19:03;;;;;;;21.70;9.82;;;2.80;99.90;;;;;;5093431;28;20046;-52
2022/01/07 05:21:29;;;;;;;27.55;10.45;;;2.70;99.90;;;;;;5093572;28;20024;-52
2022/01/07 05:23:54;;;;;;;36.15;10.38;;;2.70;99.90;;;;;;5093400;28;20023;-50
2022/01/07 05:26:20;;;;;;;30.27;11.15;;;2.90;99.90;;;;;;5092176;28;20024;-54
2022/01/07 05:28:46;;;;;;;23.80;10.18;;;2.80;99.90;;;;;;5093794;28;20016;-51
2022/01/07 05:31:11;;;;;;;20.23;9.57;;;2.90;99.90;;;;;;5093462;28;20115;-51
2022/01/07 05:33:37;;;;;;;26.63;10.30;;;2.90;99.90;;;;;;5093518;28;20056;-50
2022/01/07 05:36:03;;;;;;;29.73;12.23;;;2.80;99.90;;;;;;5093251;28;20028;-51
2022/01/07 05:38:29;;;;;;;24.80;10.93;;;2.60;99.90;;;;;;5092105;28;20024;-49
2022/01/07 05:40:54;;;;;;;30.08;10.07;;;2.60;99.90;;;;;;5092401;28;20027;-48
2022/01/07 05:43:20;;;;;;;26.00;10.30;;;2.60;99.90;;;;;;5093433;28;20113;-50
2022/01/07 05:45:46;;;;;;;25.40;9.70;;;2.50;99.90;;;;;;5092337;28;20023;-48
2022/01/07 05:48:14;;;;;;;33.15;11.45;;;2.40;99.90;;;;;;5093181;28;20028;-49
2022/01/07 05:50:40;;;;;;;29.98;10.57;;;2.40;99.90;;;;;;5092084;28;20024;-48
2022/01/07 05:53:06;;;;;;;23.17;9.45;;;2.40;99.90;;;;;;5093193;28;20032;-49
2022/01/07 05:55:32;;;;;;;28.52;9.45;;;2.40;99.90;;;;;;5093182;28;20024;-49
2022/01/07 05:57:58;;;;;;;21.80;9.48;;;2.50;99.90;;;;;;5075030;28;20056;-51
2022/01/07 06:00:24;;;;;;;22.98;9.60;;;2.40;99.90;;;;;;5093097;28;20029;-52
2022/01/07 06:02:49;;;;;;;21.77;8.93;;;2.40;99.90;;;;;;5074869;28;20028;-50
2022/01/07 06:05:15;;;;;;;27.58;9.82;;;2.40;99.90;;;;;;5078679;28;20020;-48
2022/01/07 06:07:41;;;;;;;21.08;8.70;;;2.40;99.90;;;;;;5078883;28;20474;-48
2022/01/07 06:10:08;;;;;;;24.58;7.55;;;2.40;99.90;;;;;;5079490;28;20474;-52
2022/01/07 06:12:34;;;;;;;24.65;8.77;;;2.40;99.90;;;;;;5096977;28;20020;-48
2022/01/07 06:14:59;;;;;;;23.35;8.82;;;2.30;99.90;;;;;;5079211;28;20035;-51
2022/01/07 06:17:25;;;;;;;18.38;8.07;;;2.40;99.90;;;;;;5096791;28;20020;-48
2022/01/07 06:19:51;;;;;;;22.25;7.55;;;2.50;99.90;;;;;;5078767;28;20035;-52
2022/01/07 06:22:17;;;;;;;19.85;8.18;;;2.60;99.90;;;;;;5096743;28;20028;-50
2022/01/07 06:24:43;;;;;;;14.25;7.20;;;2.80;99.90;;;;;;5078633;28;20016;-48
2022/01/07 06:27:09;;;;;;;20.45;8.15;;;2.60;99.90;;;;;;5096690;28;20122;-49
2022/01/07 06:29:35;;;;;;;21.13;8.50;;;2.70;99.90;;;;;;5096595;28;20020;-50
2022/01/07 06:32:01;;;;;;;19.70;8.00;;;2.60;99.90;;;;;;5078444;28;20031;-51
2022/01/07 06:34:26;;;;;;;20.73;8.05;;;2.70;99.90;;;;;;5096465;28;20027;-48
2022/01/07 06:36:52;;;;;;;24.45;8.18;;;2.70;99.90;;;;;;5096448;28;20031;-52
2022/01/07 06:39:22;;;;;;;30.88;9.05;;;2.70;99.90;;;;;;5096988;28;20051;-50
2022/01/07 06:41:49;;;;;;;20.30;7.32;;;2.60;99.90;;;;;;5096780;28;20040;-48
2022/01/07 06:44:15;;;;;;;18.23;6.93;;;2.60;99.90;;;;;;5096496;28;20474;-49
2022/01/07 06:46:40;;;;;;;17.52;6.85;;;2.80;99.90;;;;;;5096552;28;20077;-48
2022/01/07 06:49:06;;;;;;;18.88;6.88;;;3.00;99.90;;;;;;5078798;28;20024;-49
2022/01/07 06:51:32;;;;;;;22.02;7.88;;;3.30;99.90;;;;;;5096309;28;20059;-51
2022/01/07 06:53:58;;;;;;;19.13;5.78;;;3.30;99.90;;;;;;5078338;28;20054;-50
2022/01/07 06:56:24;;;;;;;16.40;6.22;;;3.30;99.90;;;;;;5096158;28;20474;-53
2022/01/07 06:58:50;;;;;;;23.65;6.53;;;3.50;99.90;;;;;;5077933;28;20051;-53
2022/01/07 07:01:16;;;;;;;16.48;5.63;;;3.40;99.90;;;;;;5077985;28;20482;-49
2022/01/07 07:03:42;;;;;;;15.68;6.18;;;3.40;99.90;;;;;;5096371;28;20035;-49
2022/01/07 07:06:08;;;;;;;15.50;5.80;;;3.40;99.90;;;;;;5095906;28;20027;-48
2022/01/07 07:08:33;;;;;;;15.48;5.90;;;3.30;99.90;;;;;;5077843;28;20016;-50
2022/01/07 07:10:59;;;;;;;17.88;6.55;;;3.20;99.90;;;;;;5095888;28;20020;-49
2022/01/07 07:13:25;;;;;;;16.30;5.40;;;3.20;99.90;;;;;;5078039;28;20541;-49
2022/01/07 07:15:50;;;;;;;19.02;6.18;;;3.30;99.90;;;;;;5076820;28;20104;-50
2022/01/07 07:18:17;;;;;;;19.48;6.93;;;3.30;99.90;;;;;;5078387;28;20020;-51
2022/01/07 07:20:43;;;;;;;13.40;5.55;;;3.30;99.90;;;;;;5077547;28;20077;-53
2022/01/07 07:23:09;;;;;;;14.85;6.03;;;3.30;99.90;;;;;;5095646;28;20119;-49
2022/01/07 07:25:34;;;;;;;17.50;5.82;;;3.30;99.90;;;;;;5095513;28;20477;-48
2022/01/07 07:28:00;;;;;;;11.65;5.18;;;3.30;99.90;;;;;;5083760;22;20044;-57
2022/01/07 07:30:33;;;;;;;15.50;5.80;;;3.30;99.90;;;;;;5037477;28;20063;-54
2022/01/07 07:33:09;;;;;;;16.98;6.05;;;3.30;99.90;;;;;;5055565;28;20024;-56
2022/01/07 07:38:20;;;;;;;19.52;5.75;;;3.40;99.90;;;;;;5055229;28;20036;-56
2022/01/07 07:40:45;;;;;;;21.48;7.13;;;3.30;99.90;;;;;;5037156;28;20025;-58
2022/01/07 07:43:11;;;;;;;15.82;7.72;;;3.10;99.90;;;;;;5055507;28;20061;-57
2022/01/07 07:45:37;;;;;;;16.40;6.85;;;2.90;99.90;;;;;;5055148;28;20014;-58
2022/01/07 07:48:04;;;;;;;16.42;6.53;;;2.80;99.90;;;;;;5055177;28;20066;-57
2022/01/07 07:50:30;;;;;;;16.30;6.55;;;2.80;99.90;;;;;;5037051;28;20112;-58
2022/01/07 07:52:55;;;;;;;16.08;7.38;;;2.70;99.90;;;;;;5037398;28;20063;-55
2022/01/07 07:55:21;;;;;;;19.05;8.13;;;2.60;99.90;;;;;;5037271;28;20048;-56
2022/01/07 07:57:46;;;;;;;21.95;9.88;;;2.60;99.90;;;;;;5054743;28;20017;-56
2022/01/07 08:00:13;;;;;;;17.70;8.45;;;2.50;99.90;;;;;;5054868;28;20028;-56
2022/01/07 08:02:38;;;;;;;21.35;9.52;;;2.50;99.90;;;;;;5036839;28;20107;-57
2022/01/07 08:05:04;;;;;;;30.65;9.77;;;2.50;99.90;;;;;;5054690;28;20052;-56
2022/01/07 08:07:30;;;;;;;21.27;8.25;;;2.60;99.90;;;;;;5054555;28;20025;-57
2022/01/07 08:09:56;;;;;;;19.63;8.60;;;2.60;99.90;;;;;;5036829;28;20029;-55
2022/01/07 08:12:39;;;;;;;17.20;8.02;;;2.60;99.90;;;;;;5037057;28;20032;-58
2022/01/07 08:17:49;;;;;;;18.13;7.47;;;2.50;99.90;;;;;;5054717;28;20114;-58
2022/01/07 08:20:14;;;;;;;20.67;8.60;;;2.50;99.90;;;;;;5054380;28;20060;-58
2022/01/07 08:22:40;;;;;;;17.60;8.50;;;2.40;99.90;;;;;;5036952;28;20025;-55
2022/01/07 08:25:06;;;;;;;19.48;8.90;;;2.40;99.90;;;;;;5054217;28;20024;-56
2022/01/07 08:27:32;;;;;;;20.65;9.27;;;2.50;99.90;;;;;;5035938;28;20039;-56
2022/01/07 08:29:57;;;;;;;22.23;8.80;;;2.70;99.90;;;;;;5036735;28;20029;-59
2022/01/07 08:35:07;;;;;;;16.25;8.23;;;2.80;99.90;;;;;;5054737;28;20083;-54
2022/01/07 08:37:33;;;;;;;16.92;8.15;;;2.70;99.90;;;;;;5054095;28;20105;-56
2022/01/07 08:39:59;;;;;;;17.98;7.55;;;2.70;99.90;;;;;;5036633;28;20032;-58
2022/01/07 08:42:25;;;;;;;18.98;7.57;;;2.80;99.90;;;;;;5037049;28;20425;-57
2022/01/07 08:44:52;;;;;;;12.63;6.78;;;3.10;99.90;;;;;;5036575;28;20028;-56
2022/01/07 08:47:20;;;;;;;14.85;6.95;;;3.10;99.90;;;;;;5036202;28;20025;-58
2022/01/07 08:49:48;;;;;;;13.43;6.25;;;2.80;99.90;;;;;;5047463;28;20087;-58
2022/01/07 08:52:14;;;;;;;17.85;7.38;;;2.90;99.90;;;;;;5033579;28;20026;-56
2022/01/07 08:54:40;;;;;;;11.63;6.32;;;3.00;99.90;;;;;;5034498;28;20033;-58
2022/01/07 08:57:13;;;;;;;10.82;6.07;;;3.20;99.90;;;;;;5015974;28;20025;-54
2022/01/07 08:59:38;;;;;;;11.18;5.38;;;3.10;99.90;;;;;;5016235;28;20096;-55
2022/01/07 09:05:18;;;;;;;13.30;5.00;;;3.40;99.90;;;;;;5014687;28;20038;-56
2022/01/07 09:07:44;;;;;;;17.13;5.70;;;3.50;99.90;;;;;;4996736;28;20022;-55
2022/01/07 09:10:09;;;;;;;8.65;4.47;;;3.60;99.90;;;;;;5014053;28;20026;-56
2022/01/07 09:12:35;;;;;;;12.73;5.65;;;3.60;99.90;;;;;;5012099;28;20037;-55
2022/01/07 09:15:01;;;;;;;13.95;4.60;;;3.60;99.90;;;;;;4996874;28;20030;-52
2022/01/07 09:17:29;;;;;;;7.72;4.30;;;3.70;99.90;;;;;;5016489;28;20113;-54
2022/01/07 09:19:54;;;;;;;9.57;4.55;;;3.50;99.90;;;;;;5003515;28;20104;-58
2022/01/07 09:22:27;;;;;;;11.35;4.18;;;3.60;99.90;;;;;;5004754;28;20117;-54
2022/01/07 09:24:53;;;;;;;8.95;4.00;;;3.60;99.90;;;;;;5029814;28;20026;-57
2022/01/07 09:27:18;;;;;;;10.95;4.38;;;3.60;99.90;;;;;;5032221;28;20045;-55
2022/01/07 09:29:44;;;;;;;10.95;4.20;;;3.50;99.90;;;;;;5032247;28;20033;-51
2022/01/07 09:32:09;;;;;;;7.47;4.50;;;3.50;99.90;;;;;;5031959;28;20029;-54
2022/01/07 09:34:46;;;;;;;7.90;3.95;;;3.40;99.90;;;;;;5027387;28;20041;-54
2022/01/07 09:37:12;;;;;;;7.72;4.78;;;3.30;99.90;;;;;;5015582;28;20026;-57
2022/01/07 09:39:37;;;;;;;11.60;4.80;;;3.00;99.90;;;;;;5018349;28;20033;-58
2022/01/07 09:42:05;;;;;;;12.25;4.93;;;2.90;99.90;;;;;;5019998;28;20026;-56
2022/01/07 09:44:30;;;;;;;9.55;5.07;;;3.10;99.90;;;;;;5037580;28;20025;-58
2022/01/07 09:46:56;;;;;;;10.77;4.80;;;3.20;99.90;;;;;;5037958;28;20033;-54
2022/01/07 09:49:22;;;;;;;9.38;5.03;;;3.20;99.90;;;;;;5022576;28;20064;-57
2022/01/07 09:51:49;;;;;;;8.45;4.55;;;3.40;99.90;;;;;;5017934;28;20025;-56
2022/01/07 09:54:15;;;;;;;9.35;4.93;;;3.10;99.90;;;;;;5026841;28;20025;-58
2022/01/07 09:56:41;;;;;;;6.57;4.07;;;3.00;99.90;;;;;;5036589;28;20121;-54
2022/01/07 09:59:07;;;;;;;10.10;4.85;;;2.80;99.90;;;;;;5035930;28;20112;-54
2022/01/07 10:01:55;;;;;;;7.97;4.43;;;2.60;99.90;;;;;;5037564;28;20071;-54
2022/01/07 10:04:33;;;;;;;10.82;5.43;;;2.50;99.90;;;;;;5037408;28;20029;-55
2022/01/07 10:07:29;;;;;;;8.20;4.47;;;2.40;99.90;;;;;;5037006;28;20022;-57
2022/01/07 10:10:05;;;;;;;8.88;5.18;;;2.40;99.90;;;;;;5027497;28;20487;-58
2022/01/07 10:12:47;;;;;;;7.90;4.43;;;2.30;99.90;;;;;;5036004;28;20029;-55
2022/01/07 10:15:14;;;;;;;;;;;2.30;99.90;;;;;;5036039;28;20064;-52
2022/01/07 10:17:40;;;;;;;8.35;4.80;;;2.20;99.90;;;;;;5041137;28;19908;-51
2022/01/07 10:20:07;;;;;;;11.50;6.70;;;2.10;99.90;;;;;;5055305;28;20060;-50
2022/01/07 10:22:54;;;;;;;15.27;6.78;;;2.10;99.90;;;;;;5046946;28;20053;-54
2022/01/07 10:25:26;;;;;;;9.27;5.63;;;2.30;99.90;;;;;;5036655;28;20017;-52
2022/01/07 10:27:58;;;;;;;;;;;2.50;99.90;;;;;;5015643;28;20038;-50
2022/01/07 10:30:27;;;;;;;9.02;5.32;;;2.50;99.90;;;;;;5016705;28;19996;-52
2022/01/07 10:32:56;;;;;;;12.27;5.93;;;2.40;99.90;;;;;;5015361;28;20022;-54
2022/01/07 10:35:26;;;;;;;10.25;5.85;;;2.40;99.90;;;;;;5016489;28;20101;-52
2022/01/07 10:38:27;;;;;;;11.98;5.88;;;2.50;99.90;;;;;;5015451;28;20060;-51
2022/01/07 10:40:56;;;;;;;11.27;6.05;;;2.60;99.90;;;;;;5016270;28;20034;-50
2022/01/07 10:43:29;;;;;;;12.65;5.90;;;2.70;99.90;;;;;;5016646;28;20022;-52
2022/01/07 10:45:58;;;;;;;13.30;5.75;;;2.80;99.90;;;;;;5016385;28;20480;-52
2022/01/07 10:48:49;;;;;;;17.45;8.70;;;3.20;99.90;;;;;;5016175;28;20049;-58
2022/01/07 10:51:23;;;;;;;13.52;7.38;;;3.30;99.90;;;;;;4997282;28;20029;-53
2022/01/07 10:54:16;;;;;;;17.42;6.75;;;3.20;99.90;;;;;;5035827;28;20028;-55
2022/01/07 10:56:51;;;;;;;11.98;7.10;;;3.20;99.90;;;;;;5034647;28;20025;-56
2022/01/07 10:59:19;;;;;;;12.43;6.38;;;3.50;99.90;;;;;;5035493;28;20108;-53
2022/01/07 11:01:49;;;;;;;10.57;5.22;;;3.50;99.90;;;;;;5035613;28;20472;-56
2022/01/07 11:04:45;;;;;;;11.05;4.78;;;3.50;99.90;;;;;;5018404;28;20030;-58
2022/01/07 11:07:12;;;;;;;8.82;5.05;;;3.30;99.90;;;;;;5028970;28;20367;-57
2022/01/07 11:09:38;;;;;;;10.30;5.20;;;3.30;99.90;;;;;;5024004;28;20029;-57
2022/01/07 11:12:06;;;;;;;12.85;5.63;;;3.20;99.90;;;;;;5014248;28;20022;-56
2022/01/07 11:14:42;;;;;;;13.23;5.55;;;3.30;99.90;;;;;;5017170;28;20029;-51
2022/01/07 11:17:11;;;;;;;10.82;6.45;;;3.10;99.90;;;;;;5028081;28;20025;-54
2022/01/07 11:19:42;;;;;;;10.50;5.95;;;3.00;99.90;;;;;;5035497;28;20022;-56
2022/01/07 11:22:13;;;;;;;12.95;6.60;;;2.90;99.90;;;;;;5035471;28;20022;-57
2022/01/07 11:24:42;;;;;;;14.02;7.18;;;3.00;99.90;;;;;;5017590;28;20112;-56
2022/01/07 11:27:16;;;;;;;12.75;6.97;;;3.00;99.90;;;;;;5035551;28;20471;-53
2022/01/07 11:29:48;;;;;;;14.57;7.35;;;2.80;99.90;;;;;;5017583;28;20044;-54
2022/01/07 11:32:25;;;;;;;15.13;7.35;;;2.70;99.90;;;;;;5017564;28;20108;-55
2022/01/07 11:34:52;;;;;;;14.63;6.90;;;2.90;99.90;;;;;;5017899;28;20026;-52
2022/01/07 11:37:37;;;;;;;14.50;7.03;;;2.80;99.90;;;;;;5017375;28;20112;-55
2022/01/07 11:40:07;;;;;;;12.07;6.38;;;2.80;99.90;;;;;;5017379;28;20092;-55
2022/01/07 11:42:44;;;;;;;13.60;6.63;;;2.90;99.90;;;;;;5017181;28;20021;-58
2022/01/07 11:45:40;;;;;;;13.38;6.57;;;3.10;99.90;;;;;;5017176;28;20032;-58
2022/01/07 11:48:15;;;;;;;11.63;6.60;;;3.10;99.90;;;;;;5016823;28;20068;-59
2022/01/07 11:51:07;;;;;;;16.63;6.82;;;3.00;99.90;;;;;;5034980;28;20032;-56
2022/01/07 11:53:36;;;;;;;13.65;7.35;;;2.80;99.90;;;;;;5016967;28;20510;-58
2022/01/07 11:56:03;;;;;;;20.30;8.20;;;2.60;99.90;;;;;;5035171;28;20028;-59
2022/01/07 11:58:43;;;;;;;12.70;6.68;;;2.60;99.90;;;;;;5017821;28;20025;-58
2022/01/07 12:01:32;;;;;;;16.33;6.75;;;2.60;99.90;;;;;;5016693;28;20036;-60
2022/01/07 12:04:36;;;;;;;15.63;6.30;;;2.70;99.90;;;;;;5017122;28;20022;-60
2022/01/07 12:07:04;;;;;;;15.60;5.78;;;2.80;99.90;;;;;;5034630;28;20081;-59
2022/01/07 12:09:32;;;;;;;13.77;5.97;;;2.80;99.90;;;;;;5016782;28;20029;-56
2022/01/07 12:12:00;;;;;;;18.67;7.15;;;2.90;99.90;;;;;;5016725;28;20034;-59
2022/01/07 12:14:40;;;;;;;12.43;6.18;;;2.90;99.90;;;;;;5016793;28;20029;-56
2022/01/07 12:17:17;;;;;;;13.18;6.38;;;2.80;99.90;;;;;;5006154;28;20038;-58
2022/01/07 12:19:48;;;;;;;14.00;6.32;;;3.00;99.90;;;;;;5030683;28;20021;-58
2022/01/07 12:22:16;;;;;;;;;;;3.20;99.90;;;;;;5017257;28;20048;-59
2022/01/07 12:25:30;;;;;;;8.90;5.03;;;3.20;99.90;;;;;;5033067;28;19905;-59
2022/01/07 12:28:16;;;;;;;9.73;5.03;;;3.40;99.90;;;;;;5016516;28;20022;-60
2022/01/07 12:30:43;;;;;;;12.40;5.05;;;3.80;99.90;;;;;;5016659;28;20041;-59
2022/01/07 12:33:10;;;;;;;11.63;5.45;;;4.20;99.90;;;;;;5012179;28;20029;-58
2022/01/07 12:35:59;;;;;;;10.25;5.55;;;4.20;99.90;;;;;;5016387;28;20033;-58
2022/01/07 12:38:24;;;;;;;10.95;5.32;;;4.10;99.90;;;;;;5016914;28;20033;-58
2022/01/07 12:40:52;;;;;;;13.57;6.53;;;4.30;99.90;;;;;;5016220;28;20026;-57
2022/01/07 12:43:21;;;;;;;9.40;6.10;;;4.30;99.90;;;;;;5033903;28;20035;-59
2022/01/07 12:45:59;;;;;;;10.75;5.85;;;4.20;99.90;;;;;;5016103;28;20190;-59
2022/01/07 12:48:41;;;;;;;15.57;6.38;;;4.00;99.90;;;;;;5033710;28;20079;-57
2022/01/07 12:51:07;;;;;;;11.50;5.85;;;3.90;99.90;;;;;;5016471;28;20021;-57
2022/01/07 12:53:33;;;;;;;16.40;6.88;;;4.10;99.90;;;;;;5016745;28;20025;-59
2022/01/07 12:56:22;;;;;;;15.80;7.05;;;4.20;99.90;;;;;;5016310;28;20017;-57
2022/01/07 12:58:48;;;;;;;16.10;7.75;;;3.80;99.90;;;;;;5016801;28;20032;-60
2022/01/07 13:01:22;;;;;;;16.42;6.20;;;3.70;99.90;;;;;;5016825;28;20025;-59
2022/01/07 13:04:12;;;;;;;18.85;7.13;;;3.60;99.90;;;;;;5017214;28;20025;-59
2022/01/07 13:06:42;;;;;;;15.93;7.53;;;3.50;99.90;;;;;;5016671;28;20075;-59